createdAt,value
2019-05-18T00:00:10.456Z,69.13
2019-05-18T00:02:39.789Z,69.44
2019-05-18T00:05:09.622Z,69.53
2019-05-18T00:07:39.055Z,69.33
2019-05-18T00:10:08.781Z,69.56
2019-05-18T00:12:38.224Z,69.48
2019-05-18T00:15:08.349Z,69.64
2019-05-18T00:17:37.789Z,70.04
2019-05-18T00:20:08.031Z,69.51
2019-05-18T00:22:37.473Z,70.03
2019-05-18T00:25:07.335Z,70.00
2019-05-18T00:27:36.819Z,70.17
2019-05-18T00:30:09.494Z,70.45
2019-05-18T00:32:38.929Z,70.75
2019-05-18T00:35:08.701Z,70.39
2019-05-18T00:37:38.116Z,70.54
2019-05-18T00:40:07.946Z,70.81
2019-05-18T00:42:37.367Z,71.07
2019-05-18T00:45:07.975Z,71.16
2019-05-18T00:47:41.230Z,71.26
2019-05-18T00:50:08.810Z,71.27
2019-05-18T00:52:38.229Z,72.52
2019-05-18T00:55:10.681Z,72.60
2019-05-18T00:57:40.123Z,72.60
2019-05-18T01:00:10.594Z,72.72
2019-05-18T01:02:40.081Z,72.98
2019-05-18T01:05:09.528Z,73.13
2019-05-18T01:07:39.000Z,73.46
2019-05-18T01:10:08.753Z,73.50
2019-05-18T01:12:38.115Z,73.65
2019-05-18T01:15:08.286Z,74.09
2019-05-18T01:17:37.739Z,74.15
2019-05-18T01:20:08.371Z,74.27
2019-05-18T01:22:37.817Z,74.09
2019-05-18T01:25:07.553Z,74.44
2019-05-18T01:27:36.993Z,74.45
2019-05-18T01:30:08.531Z,74.83
2019-05-18T01:32:37.970Z,74.85
2019-05-18T01:35:07.997Z,75.21
2019-05-18T01:37:37.436Z,75.62
2019-05-18T01:40:07.962Z,75.59
2019-05-18T01:42:37.328Z,75.43
2019-05-18T01:45:16.826Z,75.58
2019-05-18T01:47:41.212Z,75.58
2019-05-18T01:50:10.717Z,75.90
2019-05-18T01:52:40.087Z,75.86
2019-05-18T01:55:09.716Z,75.97
2019-05-18T01:57:39.085Z,75.97
2019-05-18T02:00:10.722Z,76.11
2019-05-18T02:02:40.065Z,76.44
2019-05-18T02:05:09.526Z,77.08
2019-05-18T02:07:38.940Z,76.74
2019-05-18T02:10:08.441Z,77.05
2019-05-18T02:12:37.805Z,77.26
2019-05-18T02:15:07.870Z,76.88
2019-05-18T02:17:37.347Z,77.12
2019-05-18T02:20:07.101Z,77.04
2019-05-18T02:22:36.539Z,76.85
2019-05-18T02:25:08.459Z,76.98
2019-05-18T02:27:37.884Z,76.79
2019-05-18T02:30:08.473Z,76.75
2019-05-18T02:32:37.943Z,76.88
2019-05-18T02:35:07.620Z,76.56
2019-05-18T02:37:37.026Z,76.67
2019-05-18T02:40:07.782Z,76.71
2019-05-18T02:42:37.144Z,77.22
2019-05-18T02:45:09.002Z,77.08
2019-05-18T02:47:38.393Z,77.40
2019-05-18T02:50:09.010Z,77.41
2019-05-18T02:52:38.438Z,77.59
2019-05-18T02:55:08.691Z,77.10
2019-05-18T02:57:38.111Z,77.07
2019-05-18T03:00:09.282Z,77.33
2019-05-18T03:02:38.705Z,77.20
2019-05-18T03:05:08.799Z,77.51
2019-05-18T03:07:38.233Z,77.51
2019-05-18T03:10:08.312Z,77.72
2019-05-18T03:12:37.742Z,77.42
2019-05-18T03:15:07.878Z,77.62
2019-05-18T03:17:37.311Z,77.22
2019-05-18T03:20:06.936Z,77.17
2019-05-18T03:22:36.323Z,77.10
2019-05-18T03:25:07.614Z,77.06
2019-05-18T03:27:37.028Z,76.49
2019-05-18T03:30:07.982Z,76.70
2019-05-18T03:32:37.348Z,76.49
2019-05-18T03:35:06.991Z,75.92
2019-05-18T03:37:36.368Z,75.25
2019-05-18T03:40:07.320Z,73.93
2019-05-18T03:42:37.032Z,71.68
2019-05-18T03:45:06.791Z,70.34
2019-05-18T03:47:36.217Z,69.28
2019-05-18T03:50:09.280Z,68.40
2019-05-18T03:52:38.747Z,67.34
2019-05-18T03:55:08.321Z,66.84
2019-05-18T03:57:37.754Z,65.88
2019-05-18T04:00:10.419Z,65.38
2019-05-18T04:02:39.890Z,64.60
2019-05-18T04:05:09.412Z,64.57
2019-05-18T04:07:39.353Z,64.86
2019-05-18T04:10:09.814Z,65.00
2019-05-18T04:12:39.258Z,64.91
2019-05-18T04:15:10.004Z,65.87
2019-05-18T04:17:39.477Z,67.12
2019-05-18T04:20:09.516Z,67.27
2019-05-18T04:22:38.888Z,67.28
2019-05-18T04:25:08.237Z,66.71
2019-05-18T04:27:37.670Z,66.68
2019-05-18T04:30:10.270Z,66.09
2019-05-18T04:32:39.696Z,66.88
2019-05-18T04:35:10.326Z,66.44
2019-05-18T04:37:39.807Z,65.44
2019-05-18T04:40:09.770Z,65.59
2019-05-18T04:42:39.165Z,64.91
2019-05-18T04:45:08.794Z,64.79
2019-05-18T04:47:38.223Z,64.28
2019-05-18T04:50:08.458Z,63.35
2019-05-18T04:52:37.816Z,63.15
2019-05-18T04:55:07.637Z,63.43
2019-05-18T04:57:37.221Z,63.08
2019-05-18T05:00:09.903Z,62.63
2019-05-18T05:02:39.374Z,62.51
2019-05-18T05:05:08.911Z,61.75
2019-05-18T05:07:38.469Z,61.48
2019-05-18T05:10:08.753Z,61.29
2019-05-18T05:12:40.883Z,60.98
2019-05-18T05:15:10.490Z,59.87
2019-05-18T05:17:44.083Z,60.15
2019-05-18T05:20:19.711Z,58.86
2019-05-18T05:22:51.449Z,59.35
2019-05-18T05:25:20.974Z,59.26
2019-05-18T05:27:50.466Z,58.63
2019-05-18T05:30:19.822Z,58.94
2019-05-18T05:32:52.346Z,58.94
2019-05-18T05:38:29.266Z,57.22
2019-05-18T05:40:51.229Z,56.60
2019-05-18T05:43:23.435Z,56.50
2019-05-18T05:45:54.430Z,54.66
2019-05-18T05:48:24.025Z,53.70
2019-05-18T05:50:53.807Z,52.77
2019-05-18T05:53:23.319Z,52.77
2019-05-18T05:55:55.749Z,52.18
2019-05-18T05:58:26.770Z,52.58
2019-05-18T06:00:56.424Z,52.58
2019-05-18T06:03:28.816Z,52.50
2019-05-18T06:05:58.778Z,52.50
2019-05-18T06:08:28.452Z,52.52
2019-05-18T06:11:06.529Z,51.68
2019-05-18T06:13:36.169Z,51.68
2019-05-18T06:16:05.819Z,51.12
2019-05-18T06:18:35.446Z,51.12
2019-05-18T06:21:08.006Z,50.69
2019-05-18T06:23:37.505Z,51.46
2019-05-18T06:26:07.129Z,51.46
2019-05-18T06:28:36.742Z,49.71
2019-05-18T06:31:09.414Z,48.56
2019-05-18T06:33:39.031Z,48.56
2019-05-18T06:36:11.983Z,48.56
2019-05-18T06:38:41.475Z,47.78
2019-05-18T06:41:12.090Z,47.15
2019-05-18T06:43:41.630Z,47.59
2019-05-18T06:46:10.801Z,47.76
2019-05-18T06:48:40.115Z,47.76
2019-05-18T06:51:09.351Z,46.75
2019-05-18T06:53:38.508Z,46.61
2019-05-18T06:56:07.725Z,46.80
2019-05-18T06:58:37.720Z,45.32
2019-05-18T07:01:07.253Z,45.86
2019-05-18T07:03:36.443Z,44.25
2019-05-18T07:06:05.600Z,44.18
2019-05-18T07:08:34.841Z,44.33
2019-05-18T07:11:04.093Z,44.23
2019-05-18T07:13:33.467Z,43.52
2019-05-18T07:16:02.637Z,42.71
2019-05-18T07:18:31.854Z,42.83
2019-05-18T07:21:00.997Z,42.87
2019-05-18T07:23:30.337Z,41.83
2019-05-18T07:25:59.451Z,42.16
2019-05-18T07:28:28.588Z,39.96
2019-05-18T07:30:57.763Z,40.28
2019-05-18T07:33:26.932Z,40.52
2019-05-18T07:35:56.072Z,40.56
2019-05-18T07:38:25.213Z,39.62
2019-05-18T07:40:54.415Z,40.01
2019-05-18T07:43:23.664Z,39.11
2019-05-18T07:45:54.772Z,38.19
2019-05-18T07:48:24.016Z,39.44
2019-05-18T07:50:53.149Z,40.11
2019-05-18T07:53:22.390Z,38.38
2019-05-18T07:55:51.599Z,38.76
2019-05-18T07:58:20.744Z,36.69
2019-05-18T08:00:49.877Z,36.81
2019-05-18T08:03:19.012Z,35.53
2019-05-18T08:05:48.106Z,35.59
2019-05-18T08:08:17.210Z,35.99
2019-05-18T08:10:46.324Z,36.91
2019-05-18T08:13:15.458Z,34.92
2019-05-18T08:15:44.665Z,35.94
2019-05-18T08:18:13.910Z,36.75
2019-05-18T08:20:43.022Z,35.11
2019-05-18T08:23:12.266Z,36.01
2019-05-18T08:25:41.523Z,33.31
2019-05-18T08:28:10.668Z,34.56
2019-05-18T08:30:39.894Z,34.94
2019-05-18T08:33:09.079Z,34.05
2019-05-18T08:35:38.395Z,34.19
2019-05-18T08:38:07.541Z,32.97
2019-05-18T08:40:36.935Z,33.35
2019-05-18T08:43:06.092Z,33.21
2019-05-18T08:45:35.274Z,34.48
2019-05-18T08:48:04.448Z,35.20
2019-05-18T08:50:33.610Z,33.58
2019-05-18T08:53:02.734Z,32.10
2019-05-18T08:55:31.891Z,33.34
2019-05-18T08:58:01.104Z,33.49
2019-05-18T09:00:30.409Z,32.44
2019-05-18T09:02:59.652Z,31.69
2019-05-18T09:05:28.805Z,30.75
2019-05-18T09:07:57.945Z,31.40
2019-05-18T09:10:27.186Z,31.22
2019-05-18T09:12:56.320Z,31.13
2019-05-18T09:15:25.471Z,28.63
2019-05-18T09:17:54.662Z,29.94
2019-05-18T09:20:23.944Z,29.70
2019-05-18T09:22:53.035Z,30.56
2019-05-18T09:25:22.296Z,29.74
2019-05-18T09:27:51.484Z,30.53
2019-05-18T09:30:20.979Z,30.80
2019-05-18T09:32:50.124Z,30.10
2019-05-18T09:35:19.780Z,29.57
2019-05-18T09:37:49.019Z,29.63
2019-05-18T09:40:18.662Z,29.88
2019-05-18T09:42:47.798Z,31.28
2019-05-18T09:45:17.544Z,28.87
2019-05-18T09:47:46.687Z,27.84
2019-05-18T09:50:16.264Z,27.85
2019-05-18T09:52:46.361Z,28.02
2019-05-18T09:55:18.283Z,29.73
2019-05-18T09:57:47.458Z,30.97
2019-05-18T10:00:18.365Z,31.37
2019-05-18T10:02:47.494Z,29.73
2019-05-18T10:05:16.666Z,30.99
2019-05-18T10:07:45.813Z,30.37
2019-05-18T10:10:15.268Z,29.06
2019-05-18T10:12:44.404Z,27.29
2019-05-18T10:15:13.928Z,27.76
2019-05-18T10:17:43.021Z,26.94
2019-05-18T10:20:12.856Z,25.69
2019-05-18T10:22:55.563Z,25.75
2019-05-18T10:25:13.167Z,27.12
2019-05-18T10:27:42.272Z,26.24
2019-05-18T10:30:11.713Z,25.57
2019-05-18T10:32:42.613Z,27.19
2019-05-18T10:35:12.056Z,27.89
2019-05-18T10:37:41.192Z,26.43
2019-05-18T10:40:11.176Z,24.59
2019-05-18T10:42:40.325Z,25.43
2019-05-18T10:45:11.635Z,24.75
2019-05-18T10:47:42.634Z,23.90
2019-05-18T10:50:11.895Z,22.33
2019-05-18T10:52:41.149Z,24.64
2019-05-18T10:55:10.576Z,24.01
2019-05-18T10:57:39.712Z,23.50
2019-05-18T11:00:12.318Z,26.07
2019-05-18T11:02:41.421Z,25.61
2019-05-18T11:05:10.791Z,24.75
2019-05-18T11:07:39.867Z,24.02
2019-05-18T11:10:10.948Z,24.46
2019-05-18T11:12:40.218Z,24.46
2019-05-18T11:15:10.607Z,23.26
2019-05-18T11:17:39.725Z,24.70
2019-05-18T11:20:12.599Z,25.09
2019-05-18T11:22:43.268Z,24.18
2019-05-18T11:25:12.597Z,24.49
2019-05-18T11:27:41.652Z,24.57
2019-05-18T11:30:12.917Z,23.76
2019-05-18T11:32:42.111Z,23.65
2019-05-18T11:35:11.787Z,25.18
2019-05-18T11:37:41.164Z,23.73
2019-05-18T11:40:12.591Z,23.70
2019-05-18T11:42:41.811Z,22.68
2019-05-18T11:45:13.113Z,23.74
2019-05-18T11:47:44.449Z,25.15
2019-05-18T11:50:17.949Z,27.17
2019-05-18T11:52:47.194Z,25.80
2019-05-18T11:55:17.753Z,23.29
2019-05-18T11:57:46.994Z,23.65
2019-05-18T12:00:17.010Z,24.52
2019-05-18T12:02:46.199Z,24.56
2019-05-18T12:05:15.690Z,24.11
2019-05-18T12:07:44.823Z,23.36
2019-05-18T12:10:18.205Z,23.81
2019-05-18T12:12:46.093Z,25.42
2019-05-18T12:15:15.627Z,26.08
2019-05-18T12:17:44.808Z,24.73
2019-05-18T12:20:14.195Z,24.51
2019-05-18T12:22:43.375Z,26.23
2019-05-18T12:25:13.037Z,25.31
2019-05-18T12:27:42.237Z,24.34
2019-05-18T12:30:13.081Z,24.61
2019-05-18T12:32:42.217Z,24.33
2019-05-18T12:35:12.318Z,25.35
2019-05-18T12:37:41.633Z,23.08
2019-05-18T12:40:11.327Z,22.81
2019-05-18T12:42:40.494Z,22.95
2019-05-18T12:45:10.223Z,23.76
2019-05-18T12:47:39.394Z,22.65
2019-05-18T12:50:10.414Z,22.66
2019-05-18T12:52:39.584Z,24.91
2019-05-18T12:55:08.984Z,24.22
2019-05-18T12:57:38.144Z,24.28
2019-05-18T13:00:15.231Z,24.56
2019-05-18T13:02:44.398Z,24.94
2019-05-18T13:05:13.906Z,25.63
2019-05-18T13:07:43.058Z,24.18
2019-05-18T13:10:13.178Z,26.04
2019-05-18T13:12:42.323Z,25.84
2019-05-18T13:15:12.338Z,25.24
2019-05-18T13:17:41.469Z,26.33
2019-05-18T13:20:12.064Z,24.13
2019-05-18T13:22:41.237Z,26.20
2019-05-18T13:25:11.919Z,24.54
2019-05-18T13:27:41.058Z,24.86
2019-05-18T13:30:13.861Z,24.26
2019-05-18T13:32:43.135Z,24.49
2019-05-18T13:35:13.951Z,25.93
2019-05-18T13:37:43.857Z,26.73
2019-05-18T13:40:14.082Z,27.04
2019-05-18T13:42:43.459Z,26.20
2019-05-18T13:45:13.784Z,27.10
2019-05-18T13:47:43.016Z,26.99
2019-05-18T13:50:13.362Z,28.35
2019-05-18T13:52:42.744Z,25.97
2019-05-18T13:55:12.144Z,27.88
2019-05-18T13:57:41.370Z,27.02
2019-05-18T14:00:10.984Z,26.73
2019-05-18T14:02:40.132Z,25.65
2019-05-18T14:05:09.573Z,26.56
2019-05-18T14:07:39.066Z,26.40
2019-05-18T14:10:12.233Z,25.93
2019-05-18T14:12:42.026Z,26.29
2019-05-18T14:15:11.998Z,26.06
2019-05-18T14:17:41.149Z,28.85
2019-05-18T14:20:11.513Z,27.27
2019-05-18T14:22:40.851Z,27.57
2019-05-18T14:25:19.208Z,28.81
2019-05-18T14:27:42.100Z,26.68
2019-05-18T14:30:11.789Z,27.63
2019-05-18T14:32:40.965Z,27.08
2019-05-18T14:35:10.306Z,27.54
2019-05-18T14:37:39.553Z,27.45
2019-05-18T14:40:09.173Z,28.40
2019-05-18T14:42:38.397Z,28.15
2019-05-18T14:45:08.782Z,28.56
2019-05-18T14:47:40.085Z,29.25
2019-05-18T14:50:09.023Z,28.07
2019-05-18T14:52:38.248Z,28.06
2019-05-18T14:55:10.810Z,28.86
2019-05-18T14:57:40.137Z,28.53
2019-05-18T15:00:10.451Z,28.05
2019-05-18T15:02:39.626Z,27.87
2019-05-18T15:05:10.968Z,31.02
2019-05-18T15:07:40.101Z,27.48
2019-05-18T15:10:09.769Z,28.21
2019-05-18T15:12:39.018Z,29.58
2019-05-18T15:15:09.165Z,29.23
2019-05-18T15:17:38.428Z,28.48
2019-05-18T15:20:09.687Z,28.88
2019-05-18T15:22:39.069Z,28.85
2019-05-18T15:25:08.644Z,26.32
2019-05-18T15:27:37.921Z,28.07
2019-05-18T15:30:10.722Z,27.78
2019-05-18T15:32:40.354Z,28.52
2019-05-18T15:35:13.317Z,27.97
2019-05-18T15:37:43.777Z,28.82
2019-05-18T15:40:13.962Z,28.92
2019-05-18T15:42:43.233Z,28.36
2019-05-18T15:45:12.682Z,29.74
2019-05-18T15:47:41.960Z,30.74
2019-05-18T15:50:11.982Z,30.21
2019-05-18T15:52:41.214Z,30.39
2019-05-18T15:55:10.707Z,31.60
2019-05-18T15:57:40.140Z,33.43
2019-05-18T16:00:11.179Z,34.07
2019-05-18T16:02:40.315Z,35.25
2019-05-18T16:05:09.979Z,35.40
2019-05-18T16:07:39.240Z,36.23
2019-05-18T16:10:08.893Z,36.38
2019-05-18T16:12:38.083Z,36.11
2019-05-18T16:15:08.065Z,36.20
2019-05-18T16:17:39.953Z,36.44
2019-05-18T16:20:09.523Z,36.59
2019-05-18T16:22:38.839Z,36.11
2019-05-18T16:25:08.773Z,36.28
2019-05-18T16:27:38.269Z,35.97
2019-05-18T16:30:09.418Z,35.86
2019-05-18T16:32:38.515Z,35.53
2019-05-18T16:35:11.316Z,35.49
2019-05-18T16:37:40.572Z,35.78
2019-05-18T16:40:10.071Z,35.99
2019-05-18T16:42:39.318Z,36.30
2019-05-18T16:45:09.047Z,36.31
2019-05-18T16:47:38.169Z,36.31
2019-05-18T16:50:08.294Z,36.54
2019-05-18T16:52:37.466Z,36.04
2019-05-18T16:55:08.327Z,36.29
2019-05-18T16:57:37.827Z,36.03
2019-05-18T17:00:15.732Z,36.28
2019-05-18T17:02:42.944Z,36.42
2019-05-18T17:05:12.366Z,36.42
2019-05-18T17:07:41.631Z,36.73
2019-05-18T17:10:11.305Z,36.64
2019-05-18T17:12:40.454Z,36.92
2019-05-18T17:15:10.249Z,36.96
2019-05-18T17:17:43.972Z,36.96
2019-05-18T17:20:13.933Z,37.82
2019-05-18T17:22:43.441Z,37.82
2019-05-18T17:25:13.085Z,37.76
2019-05-18T17:27:42.368Z,37.27
2019-05-18T17:30:12.436Z,37.72
2019-05-18T17:32:42.087Z,38.24
2019-05-18T17:35:12.322Z,38.93
2019-05-18T17:37:43.421Z,38.93
2019-05-18T17:40:12.734Z,39.23
2019-05-18T17:42:42.362Z,41.35
2019-05-18T17:45:11.911Z,40.73
2019-05-18T17:47:41.206Z,41.82
2019-05-18T17:50:11.147Z,41.82
2019-05-18T17:52:40.667Z,42.54
2019-05-18T17:55:10.671Z,42.90
2019-05-18T17:57:40.007Z,43.94
2019-05-18T18:00:11.032Z,44.45
2019-05-18T18:02:40.860Z,44.37
2019-05-18T18:05:10.846Z,46.17
2019-05-18T18:07:40.282Z,45.47
2019-05-18T18:10:10.208Z,46.32
2019-05-18T18:12:39.780Z,46.32
2019-05-18T18:15:10.397Z,47.67
2019-05-18T18:17:39.808Z,47.38
2019-05-18T18:20:10.676Z,47.63
2019-05-18T18:22:40.108Z,47.88
2019-05-18T18:25:09.728Z,49.69
2019-05-18T18:27:39.297Z,49.68
2019-05-18T18:30:11.374Z,49.27
2019-05-18T18:32:41.087Z,49.27
2019-05-18T18:35:11.099Z,49.85
2019-05-18T18:37:40.547Z,50.44
2019-05-18T18:40:10.609Z,51.42
2019-05-18T18:42:40.055Z,51.45
2019-05-18T18:45:10.226Z,51.54
2019-05-18T18:47:39.721Z,52.12
2019-05-18T18:50:09.746Z,52.64
2019-05-18T18:52:39.221Z,52.89
2019-05-18T18:55:09.197Z,53.84
2019-05-18T18:57:41.755Z,53.84
2019-05-18T19:00:10.670Z,54.15
2019-05-18T19:02:40.160Z,54.37
2019-05-18T19:05:09.848Z,54.37
2019-05-18T19:07:39.349Z,55.24
2019-05-18T19:10:09.071Z,55.21
2019-05-18T19:12:38.466Z,56.38
2019-05-18T19:15:10.182Z,56.47
2019-05-18T19:17:39.780Z,57.45
2019-05-18T19:20:12.263Z,57.67
2019-05-18T19:22:41.679Z,58.03
2019-05-18T19:25:11.623Z,59.67
2019-05-18T19:27:53.734Z,59.08
2019-05-18T19:30:19.575Z,59.26
2019-05-18T19:32:49.021Z,59.29
2019-05-18T19:35:18.392Z,59.29
2019-05-18T19:37:48.054Z,60.27
2019-05-18T19:40:17.641Z,59.35
2019-05-18T19:42:47.241Z,59.35
2019-05-18T19:45:16.670Z,60.96
2019-05-18T19:47:46.291Z,60.07
2019-05-18T19:50:15.823Z,60.41
2019-05-18T19:52:45.345Z,60.95
2019-05-18T19:55:14.819Z,61.37
2019-05-18T19:57:44.571Z,61.91
2019-05-18T20:00:15.258Z,61.80
2019-05-18T20:02:44.714Z,62.38
2019-05-18T20:05:14.346Z,62.46
2019-05-18T20:07:43.850Z,63.35
2019-05-18T20:10:13.622Z,63.92
2019-05-18T20:12:43.030Z,63.79
2019-05-18T20:15:13.190Z,62.94
2019-05-18T20:17:42.640Z,62.92
2019-05-18T20:20:12.404Z,62.71
2019-05-18T20:22:41.850Z,62.94
2019-05-18T20:25:11.561Z,63.40
2019-05-18T20:27:41.041Z,63.76
2019-05-18T20:30:10.899Z,63.75
2019-05-18T20:32:40.451Z,63.75
2019-05-18T20:35:10.671Z,63.79
2019-05-18T20:37:40.124Z,63.98
2019-05-18T20:40:10.293Z,64.00
2019-05-18T20:42:39.703Z,63.79
2019-05-18T20:45:09.524Z,64.02
2019-05-18T20:47:38.946Z,63.83
2019-05-18T20:50:08.723Z,64.18
2019-05-18T20:52:38.197Z,64.18
2019-05-18T20:55:07.848Z,64.25
2019-05-18T20:57:37.304Z,64.41
2019-05-18T21:00:08.468Z,64.37
2019-05-18T21:02:38.140Z,63.87
2019-05-18T21:05:08.143Z,63.73
2019-05-18T21:07:37.533Z,64.58
2019-05-18T21:10:10.043Z,64.64
2019-05-18T21:12:39.511Z,64.49
2019-05-18T21:15:09.765Z,64.64
2019-05-18T21:17:39.367Z,64.64
2019-05-18T21:20:09.216Z,64.37
2019-05-18T21:22:38.756Z,64.05
2019-05-18T21:25:08.205Z,64.30
2019-05-18T21:27:37.646Z,64.32
2019-05-18T21:30:07.477Z,64.41
2019-05-18T21:32:36.937Z,64.85
2019-05-18T21:35:08.549Z,64.70
2019-05-18T21:37:38.140Z,64.86
2019-05-18T21:40:09.124Z,64.79
2019-05-18T21:42:41.392Z,64.84
2019-05-18T21:45:11.031Z,64.84
2019-05-18T21:47:40.471Z,65.14
2019-05-18T21:50:10.012Z,66.23
2019-05-18T21:52:41.974Z,66.23
2019-05-18T21:55:11.725Z,66.87
2019-05-18T21:57:41.161Z,67.03
2019-05-18T22:00:11.318Z,67.03
2019-05-18T22:02:40.736Z,67.37
2019-05-18T22:05:10.188Z,67.37
2019-05-18T22:07:39.644Z,67.85
2019-05-18T22:10:24.987Z,68.26
2019-05-18T22:12:44.975Z,68.38
2019-05-18T22:15:14.787Z,67.90
2019-05-18T22:18:01.975Z,67.95
2019-05-18T22:20:32.874Z,67.95
2019-05-18T22:23:02.757Z,67.01
2019-05-18T22:25:32.694Z,67.23
2019-05-18T22:28:02.208Z,66.74
2019-05-18T22:30:31.683Z,66.74
2019-05-18T22:33:01.167Z,66.24
2019-05-18T22:35:30.630Z,66.24
2019-05-18T22:38:00.130Z,66.58
2019-05-18T22:40:29.844Z,66.18
2019-05-18T22:42:59.224Z,66.42
2019-05-18T22:45:28.889Z,67.00
2019-05-18T22:47:58.582Z,67.25
2019-05-18T22:50:28.132Z,67.13
2019-05-18T22:52:58.017Z,67.26
2019-05-18T22:55:29.110Z,67.74
2019-05-18T22:58:00.796Z,67.90
2019-05-18T23:00:30.263Z,67.27
2019-05-18T23:02:59.968Z,68.20
2019-05-18T23:05:31.070Z,67.65
2019-05-18T23:08:03.289Z,68.25
2019-05-18T23:10:34.818Z,68.08
2019-05-18T23:13:04.301Z,67.85
2019-05-18T23:15:34.021Z,68.05
2019-05-18T23:18:03.491Z,69.08
2019-05-18T23:20:35.969Z,68.90
2019-05-18T23:23:05.642Z,69.51
2019-05-18T23:25:35.271Z,69.75
2019-05-18T23:28:04.772Z,70.04
2019-05-18T23:30:34.220Z,70.43
2019-05-18T23:33:03.892Z,70.85
2019-05-18T23:35:34.058Z,71.08
2019-05-18T23:38:03.514Z,70.97
2019-05-18T23:40:33.019Z,71.30
2019-05-18T23:43:02.482Z,71.42
2019-05-18T23:45:31.937Z,71.52
2019-05-18T23:48:01.314Z,71.50
2019-05-18T23:50:30.758Z,71.46
2019-05-18T23:53:00.316Z,71.79
2019-05-18T23:55:29.909Z,71.90
2019-05-18T23:58:05.835Z,71.91
